Time;durP1;ratioP1;P1;durP2;ratioP2;P2;SDS_P1;SDS_P2;PMS_P1;PMS_P2;Temp;Humidity;BMP_temperature;BMP_pressure;BME280_temperature;BME280_humidity;BME280_pressure;Samples;Min_cycle;Max_cycle;Signal;HPM_P1;HPM_P2
2020/12/19 00:00:49;;;;;;;8.70;6.13;;;2.50;99.90;;;;;;4976913;28;20195;-49
2020/12/19 00:03:16;;;;;;;9.40;5.50;;;2.50;99.90;;;;;;4975821;28;20184;-45
2020/12/19 00:05:44;;;;;;;11.20;6.95;;;2.50;99.90;;;;;;4976997;28;20626;-44
2020/12/19 00:08:11;;;;;;;14.43;9.48;;;2.40;99.90;;;;;;4976747;28;20195;-49
2020/12/19 00:10:38;;;;;;;10.73;7.35;;;2.40;99.90;;;;;;4976865;28;20281;-45
2020/12/19 00:13:05;;;;;;;13.98;8.13;;;2.40;99.90;;;;;;4976588;28;20271;-47
2020/12/19 00:15:33;;;;;;;11.50;7.05;;;2.30;99.90;;;;;;4976843;28;20223;-48
2020/12/19 00:18:00;;;;;;;8.45;6.30;;;2.40;99.90;;;;;;4977369;28;20202;-46
2020/12/19 00:20:27;;;;;;;10.02;7.88;;;2.30;99.90;;;;;;4978185;28;20178;-44
2020/12/19 00:22:55;;;;;;;10.52;5.90;;;2.30;99.90;;;;;;4977509;28;20179;-49
2020/12/19 00:25:22;;;;;;;10.93;6.32;;;2.30;99.90;;;;;;4976638;28;20569;-48
2020/12/19 00:27:49;;;;;;;10.30;9.00;;;2.30;99.90;;;;;;4976637;28;20223;-44
2020/12/19 00:30:16;;;;;;;9.85;6.95;;;2.30;99.90;;;;;;4976766;28;20215;-44
2020/12/19 00:32:44;;;;;;;13.52;7.07;;;2.20;99.90;;;;;;4976331;28;20183;-47
2020/12/19 00:35:11;;;;;;;13.43;7.95;;;2.30;99.90;;;;;;4976026;28;20629;-47
2020/12/19 00:37:42;;;;;;;17.75;7.55;;;2.20;99.90;;;;;;4975905;28;20192;-45
2020/12/19 00:40:11;;;;;;;15.20;7.93;;;2.20;99.90;;;;;;4976679;28;20198;-45
2020/12/19 00:42:38;;;;;;;9.85;7.25;;;2.20;99.90;;;;;;4977072;28;20207;-50
2020/12/19 00:45:07;;;;;;;7.63;5.40;;;2.20;99.90;;;;;;4977094;28;20180;-47
2020/12/19 00:47:35;;;;;;;9.23;7.30;;;2.20;99.90;;;;;;4977201;28;20262;-44
2020/12/19 00:50:03;;;;;;;15.93;9.07;;;2.10;99.90;;;;;;4976001;28;20195;-46
2020/12/19 00:52:30;;;;;;;8.40;6.03;;;2.10;99.90;;;;;;4975599;28;20188;-45
2020/12/19 00:54:57;;;;;;;9.88;7.25;;;2.10;99.90;;;;;;4975875;28;20278;-50
2020/12/19 00:57:29;;;;;;;12.20;7.45;;;2.10;99.90;;;;;;4975823;28;20625;-44
2020/12/19 00:59:56;;;;;;;11.07;5.95;;;2.10;99.90;;;;;;5035125;23;20199;-71
2020/12/19 01:02:23;;;;;;;21.75;8.38;;;2.00;99.90;;;;;;4957888;28;20292;-71
2020/12/19 01:04:51;;;;;;;12.38;6.43;;;2.00;99.90;;;;;;4957841;28;20247;-72
2020/12/19 01:07:18;;;;;;;13.85;5.82;;;2.00;99.90;;;;;;4958254;28;20267;-72
2020/12/19 01:09:46;;;;;;;6.30;3.65;;;2.10;99.90;;;;;;4957668;28;20252;-72
2020/12/19 01:12:13;;;;;;;11.95;4.90;;;2.10;99.90;;;;;;4957659;28;20192;-70
2020/12/19 01:14:41;;;;;;;10.95;5.82;;;2.10;99.90;;;;;;4957691;28;20239;-71
2020/12/19 01:17:08;;;;;;;7.78;5.78;;;2.10;99.90;;;;;;4957607;28;20196;-70
2020/12/19 01:19:35;;;;;;;14.25;6.47;;;2.00;99.90;;;;;;4957842;28;20181;-71
2020/12/19 01:22:02;;;;;;;12.85;8.73;;;2.10;99.90;;;;;;4957518;28;20185;-71
2020/12/19 01:24:29;;;;;;;17.60;7.75;;;2.10;99.90;;;;;;4957877;28;20231;-72
2020/12/19 01:26:57;;;;;;;8.52;4.30;;;2.10;99.90;;;;;;4957845;28;20212;-71
2020/12/19 01:29:24;;;;;;;12.95;7.30;;;2.10;99.90;;;;;;4957845;28;20669;-70
2020/12/19 01:31:52;;;;;;;16.05;7.20;;;2.10;99.90;;;;;;4957739;28;20732;-69
2020/12/19 01:34:20;;;;;;;12.65;7.30;;;2.10;99.90;;;;;;4957561;28;20216;-71
2020/12/19 01:36:47;;;;;;;14.68;7.53;;;2.10;99.90;;;;;;4957289;28;20740;-70
2020/12/19 01:39:14;;;;;;;12.77;6.72;;;2.10;99.90;;;;;;4957303;28;20180;-71
2020/12/19 01:41:41;;;;;;;9.63;5.93;;;2.10;99.90;;;;;;4957206;28;20207;-70
2020/12/19 01:44:08;;;;;;;16.52;8.35;;;2.10;99.90;;;;;;4957062;28;20212;-70
2020/12/19 01:46:55;;;;;;;6.55;5.88;;;2.10;99.90;;;;;;4957204;28;20200;-70
2020/12/19 01:49:24;;;;;;;10.85;7.13;;;2.10;99.90;;;;;;4957499;28;20181;-72
2020/12/19 01:51:54;;;;;;;10.90;7.35;;;2.10;99.90;;;;;;4957286;28;20180;-71
2020/12/19 01:54:22;;;;;;;9.32;8.43;;;2.10;99.90;;;;;;4957153;28;20212;-70
2020/12/19 01:56:51;;;;;;;7.95;3.55;;;2.10;99.90;;;;;;4955618;29;20685;-71
2020/12/19 01:59:20;;;;;;;12.48;6.28;;;2.10;99.90;;;;;;4957499;28;20184;-69
2020/12/19 02:01:48;;;;;;;10.30;6.03;;;2.00;99.90;;;;;;4959075;28;20608;-71
2020/12/19 02:04:18;;;;;;;12.63;6.07;;;2.00;99.90;;;;;;4958832;28;20265;-72
2020/12/19 02:06:47;;;;;;;10.35;6.72;;;1.90;99.90;;;;;;4957333;28;20530;-74
2020/12/19 02:09:16;;;;;;;8.20;5.35;;;2.00;99.90;;;;;;4957220;28;20228;-73
2020/12/19 03:34:03;;;;;;;10.77;6.40;;;1.90;99.90;;;;;;4955186;28;20672;-70
2020/12/19 03:36:42;;;;;;;6.55;4.03;;;1.90;99.90;;;;;;4954858;29;20254;-69
2020/12/19 03:39:09;;;;;;;17.15;6.15;;;2.00;99.90;;;;;;4955029;28;20571;-68
2020/12/19 03:41:36;;;;;;;10.68;6.22;;;2.00;99.90;;;;;;4955134;28;20180;-69
2020/12/19 03:44:03;;;;;;;9.18;5.88;;;1.90;99.90;;;;;;4954972;28;20225;-69
2020/12/19 03:46:30;;;;;;;9.30;5.55;;;1.90;99.90;;;;;;4954875;28;20567;-69
2020/12/19 03:48:57;;;;;;;7.72;5.38;;;2.00;99.90;;;;;;4954777;28;20181;-69
2020/12/19 03:51:25;;;;;;;11.00;6.07;;;1.90;99.90;;;;;;4954867;28;20180;-70
2020/12/19 03:53:52;;;;;;;8.93;4.63;;;1.90;99.90;;;;;;4954964;28;20259;-70
2020/12/19 03:56:19;;;;;;;6.40;5.55;;;1.90;99.90;;;;;;4954993;28;20181;-69
2020/12/19 03:58:46;;;;;;;9.93;4.95;;;1.90;99.90;;;;;;4955197;28;20553;-69
2020/12/19 04:01:13;;;;;;;9.57;6.15;;;2.00;99.90;;;;;;4955193;28;20615;-69
2020/12/19 04:03:40;;;;;;;9.35;4.78;;;2.00;99.90;;;;;;4955014;28;20220;-70
2020/12/19 04:06:07;;;;;;;7.40;5.55;;;2.00;99.90;;;;;;4955148;28;20677;-69
2020/12/19 04:08:35;;;;;;;9.43;5.45;;;2.00;99.90;;;;;;4954919;28;20195;-69
2020/12/19 04:11:05;;;;;;;10.48;6.60;;;2.00;99.90;;;;;;4954726;28;20180;-69
2020/12/19 04:13:32;;;;;;;3.33;3.00;;;2.00;99.90;;;;;;4954647;28;20196;-69
2020/12/19 04:16:00;;;;;;;15.65;6.05;;;1.90;99.90;;;;;;4954611;28;20549;-69
2020/12/19 04:18:27;;;;;;;8.90;5.55;;;2.00;99.90;;;;;;4954677;28;20226;-69
2020/12/19 04:20:54;;;;;;;12.52;6.10;;;2.00;99.90;;;;;;4954714;28;20180;-69
2020/12/19 04:23:21;;;;;;;8.57;5.13;;;2.00;99.90;;;;;;4954504;28;20187;-69
2020/12/19 04:25:49;;;;;;;10.23;6.07;;;2.00;99.90;;;;;;4954334;28;20212;-69
2020/12/19 04:28:17;;;;;;;10.02;6.63;;;2.00;99.90;;;;;;4954584;28;20192;-69
2020/12/19 04:30:44;;;;;;;6.72;4.45;;;2.00;99.90;;;;;;4954397;28;20188;-70
2020/12/19 04:33:11;;;;;;;4.70;4.15;;;2.10;99.90;;;;;;4954266;28;20343;-71
2020/12/19 04:35:38;;;;;;;16.25;6.53;;;2.10;99.90;;;;;;4954688;28;20215;-69
2020/12/19 04:38:06;;;;;;;7.38;4.85;;;2.20;99.90;;;;;;4954285;28;20210;-69
2020/12/19 04:40:33;;;;;;;11.85;4.13;;;2.20;99.90;;;;;;4954542;28;20177;-70
2020/12/19 04:43:12;;;;;;;6.68;4.93;;;2.10;99.90;;;;;;4954601;28;20184;-70
2020/12/19 04:45:39;;;;;;;4.75;3.97;;;2.10;99.90;;;;;;4955616;28;20215;-70
2020/12/19 04:48:07;;;;;;;9.93;5.93;;;2.10;99.90;;;;;;4958199;28;20230;-70
2020/12/19 04:50:38;;;;;;;9.02;6.05;;;2.00;99.90;;;;;;4958161;28;20188;-70
2020/12/19 04:53:15;;;;;;;3.60;2.88;;;2.10;99.90;;;;;;4958080;28;20188;-70
2020/12/19 04:55:43;;;;;;;10.13;4.00;;;2.00;99.90;;;;;;4958201;28;20742;-69
2020/12/19 04:58:12;;;;;;;6.15;4.40;;;2.00;99.90;;;;;;4958124;28;20259;-72
2020/12/19 05:00:41;;;;;;;3.90;3.50;;;2.00;99.90;;;;;;4958555;28;20192;-70
2020/12/19 05:03:08;;;;;;;14.13;5.50;;;1.90;99.90;;;;;;4957291;28;20533;-71
2020/12/19 05:05:41;;;;;;;10.45;7.72;;;1.90;99.90;;;;;;4957814;28;20212;-72
2020/12/19 05:08:09;;;;;;;8.95;6.78;;;1.90;99.90;;;;;;4957881;28;20203;-72
2020/12/19 05:10:37;;;;;;;5.45;3.10;;;1.90;99.90;;;;;;4957472;28;20176;-72
2020/12/19 05:13:05;;;;;;;8.02;3.22;;;1.80;99.90;;;;;;4957270;28;20183;-72
2020/12/19 05:15:33;;;;;;;11.60;8.27;;;1.80;99.90;;;;;;4957514;28;20246;-71
2020/12/19 05:18:01;;;;;;;4.70;3.42;;;1.70;99.90;;;;;;4957369;28;20180;-71
2020/12/19 05:20:30;;;;;;;7.28;4.65;;;1.70;99.90;;;;;;4958188;28;20250;-72
2020/12/19 05:22:58;;;;;;;7.20;2.58;;;1.70;99.90;;;;;;4957714;28;20192;-72
2020/12/19 05:25:27;;;;;;;4.85;4.20;;;1.60;99.90;;;;;;4957170;28;20216;-71
2020/12/19 05:27:55;;;;;;;3.42;2.50;;;1.60;99.90;;;;;;4956145;29;20204;-71
2020/12/19 05:30:22;;;;;;;6.57;5.07;;;1.50;99.90;;;;;;4957306;28;20184;-71
2020/12/19 05:32:52;;;;;;;7.38;4.55;;;1.50;99.90;;;;;;4957103;28;20191;-71
2020/12/19 05:35:30;;;;;;;6.80;4.53;;;1.40;99.90;;;;;;4957092;28;20286;-71
2020/12/19 05:37:59;;;;;;;4.88;4.47;;;1.30;99.90;;;;;;4957040;28;20246;-71
2020/12/19 05:40:28;;;;;;;8.95;4.70;;;1.30;99.90;;;;;;4955838;29;20185;-70
2020/12/19 05:42:55;;;;;;;9.98;6.18;;;1.30;99.90;;;;;;4957135;28;20199;-70
2020/12/19 05:45:23;;;;;;;9.38;5.50;;;1.30;99.90;;;;;;4956677;28;20216;-71
2020/12/19 05:47:52;;;;;;;7.30;4.72;;;1.20;99.90;;;;;;4956875;28;20191;-70
2020/12/19 05:50:20;;;;;;;12.45;6.40;;;1.20;99.90;;;;;;4956761;28;20192;-71
2020/12/19 05:52:48;;;;;;;8.45;5.13;;;1.20;99.90;;;;;;4957090;28;20649;-72
2020/12/19 05:55:18;;;;;;;7.80;6.28;;;1.20;99.90;;;;;;4956578;28;20216;-71
2020/12/19 05:57:46;;;;;;;9.52;6.60;;;1.20;99.90;;;;;;4956378;28;20211;-72
2020/12/19 06:00:16;;;;;;;9.98;7.30;;;1.10;99.90;;;;;;4956726;28;20172;-71
2020/12/19 06:02:44;;;;;;;7.22;6.03;;;1.10;99.90;;;;;;4956601;28;20597;-71
2020/12/19 06:05:13;;;;;;;5.85;5.25;;;1.10;99.90;;;;;;4956580;28;20211;-71
2020/12/19 06:07:42;;;;;;;11.20;5.50;;;1.20;99.90;;;;;;4956510;28;20172;-70
2020/12/19 06:10:12;;;;;;;10.13;4.57;;;1.20;99.90;;;;;;4956460;28;20223;-71
2020/12/19 06:12:56;;;;;;;5.18;4.30;;;1.10;99.90;;;;;;4956571;28;20180;-71
2020/12/19 06:15:33;;;;;;;11.38;6.55;;;1.10;99.90;;;;;;4956362;28;20216;-71
2020/12/19 06:18:07;;;;;;;6.63;5.78;;;1.10;99.90;;;;;;4956481;28;20176;-71
2020/12/19 06:20:36;;;;;;;8.57;3.90;;;1.20;99.90;;;;;;4956461;28;20188;-71
2020/12/19 06:23:13;;;;;;;10.48;5.75;;;1.20;99.90;;;;;;4956186;28;20189;-71
2020/12/19 06:25:42;;;;;;;8.68;5.88;;;1.20;99.90;;;;;;4956080;28;20216;-70
2020/12/19 06:28:10;;;;;;;10.60;5.97;;;1.20;99.90;;;;;;4956114;28;20172;-70
2020/12/19 06:30:38;;;;;;;9.18;4.97;;;1.30;99.90;;;;;;4954938;29;20204;-72
2020/12/19 06:33:10;;;;;;;11.40;5.80;;;1.30;99.90;;;;;;4956108;28;20216;-70
2020/12/19 06:35:46;;;;;;;11.25;6.18;;;1.30;99.90;;;;;;4955933;28;20223;-70
2020/12/19 06:38:40;;;;;;;8.07;5.55;;;1.20;99.90;;;;;;4956183;28;20181;-70
2020/12/19 06:41:07;;;;;;;13.13;4.70;;;1.30;99.90;;;;;;4956042;28;20541;-71
2020/12/19 06:43:34;;;;;;;4.57;4.32;;;1.30;99.90;;;;;;4955652;28;20208;-71
2020/12/19 06:46:01;;;;;;;9.75;6.20;;;1.30;99.90;;;;;;4955896;28;20253;-71
2020/12/19 06:48:33;;;;;;;8.77;7.97;;;1.30;99.90;;;;;;4955917;28;20279;-71
2020/12/19 06:51:02;;;;;;;10.63;5.32;;;1.40;99.90;;;;;;4956184;28;20575;-71
2020/12/19 06:53:30;;;;;;;10.05;5.78;;;1.30;99.90;;;;;;4955537;28;20181;-71
2020/12/19 06:55:58;;;;;;;8.73;3.95;;;1.40;99.90;;;;;;4955507;28;20176;-71
2020/12/19 06:58:35;;;;;;;7.57;5.45;;;1.30;99.90;;;;;;4955623;28;20192;-71
2020/12/19 07:01:26;;;;;;;10.20;4.53;;;1.30;99.90;;;;;;5078278;23;20241;-42
2020/12/19 07:03:53;;;;;;;11.38;5.45;;;1.40;99.90;;;;;;4993146;28;20621;-44
2020/12/19 07:06:21;;;;;;;5.70;4.53;;;1.40;99.90;;;;;;4993101;28;20207;-42
2020/12/19 07:08:50;;;;;;;9.02;6.88;;;1.40;99.90;;;;;;4992449;28;20191;-40
2020/12/19 07:11:40;;;;;;;13.88;5.30;;;1.40;99.90;;;;;;4992677;28;20195;-42
2020/12/19 07:14:14;;;;;;;11.65;8.27;;;1.40;99.90;;;;;;4992342;28;20175;-43
2020/12/19 07:16:49;;;;;;;11.60;5.43;;;1.40;99.90;;;;;;4992034;28;20678;-48
2020/12/19 07:19:24;;;;;;;17.35;6.55;;;1.40;99.90;;;;;;4992206;28;20201;-45
2020/12/19 07:21:53;;;;;;;6.55;5.93;;;1.40;99.90;;;;;;4991956;28;20179;-40
2020/12/19 07:24:20;;;;;;;10.45;5.75;;;1.40;99.90;;;;;;4991745;28;20190;-44
2020/12/19 07:26:47;;;;;;;9.52;5.30;;;1.50;99.90;;;;;;4991912;28;20215;-42
2020/12/19 07:29:17;;;;;;;5.43;4.00;;;1.50;99.90;;;;;;4992426;28;20606;-43
2020/12/19 07:31:47;;;;;;;7.40;5.43;;;1.50;99.90;;;;;;4992060;28;20183;-51
2020/12/19 07:34:15;;;;;;;9.52;6.28;;;1.50;99.90;;;;;;4992755;28;20187;-47
2020/12/19 07:36:44;;;;;;;5.43;4.50;;;1.60;99.90;;;;;;4992929;28;20624;-52
2020/12/19 07:39:13;;;;;;;8.68;6.60;;;1.60;99.90;;;;;;4992660;28;20175;-44
2020/12/19 07:41:42;;;;;;;10.25;5.60;;;1.60;99.90;;;;;;4992695;28;20179;-52
2020/12/19 07:44:16;;;;;;;14.13;5.05;;;1.70;99.90;;;;;;4993106;28;20603;-47
2020/12/19 07:46:54;;;;;;;8.35;5.72;;;1.70;99.90;;;;;;4992944;28;20231;-44
2020/12/19 07:49:44;;;;;;;7.95;5.43;;;1.70;99.90;;;;;;4992579;28;20179;-42
2020/12/19 07:52:17;;;;;;;14.23;7.30;;;1.80;99.90;;;;;;4991536;28;20596;-44
2020/12/19 07:54:59;;;;;;;12.70;7.05;;;1.80;99.90;;;;;;4958348;28;20213;-46
2020/12/19 07:57:28;;;;;;;11.73;6.32;;;1.90;99.90;;;;;;4952968;29;20176;-42
2020/12/19 07:59:56;;;;;;;8.38;5.28;;;1.90;99.90;;;;;;4970252;28;20219;-43
2020/12/19 08:02:24;;;;;;;4.82;4.20;;;2.00;99.90;;;;;;4972205;28;20258;-44
2020/12/19 08:04:53;;;;;;;9.10;7.25;;;2.10;99.90;;;;;;4954665;28;20215;-43
2020/12/19 08:07:21;;;;;;;6.60;4.38;;;2.20;99.90;;;;;;4972323;28;20227;-42
2020/12/19 08:09:49;;;;;;;10.32;6.13;;;2.20;99.90;;;;;;4972092;28;20183;-44
2020/12/19 08:12:17;;;;;;;6.35;5.28;;;2.30;99.90;;;;;;4972091;28;20198;-42
2020/12/19 08:14:45;;;;;;;10.18;5.20;;;2.30;99.90;;;;;;4971915;28;20190;-44
2020/12/19 08:17:15;;;;;;;7.50;5.57;;;2.50;99.90;;;;;;4972063;28;20215;-43
2020/12/19 08:19:47;;;;;;;7.88;6.40;;;2.70;99.90;;;;;;4963119;28;20195;-41
2020/12/19 08:22:15;;;;;;;10.68;5.60;;;2.90;99.90;;;;;;4995241;28;20214;-42
2020/12/19 08:24:57;;;;;;;6.53;4.20;;;2.90;99.90;;;;;;4977957;28;20209;-45
2020/12/19 08:27:28;;;;;;;15.15;7.50;;;3.00;99.90;;;;;;4975942;28;20207;-41
2020/12/19 08:30:07;;;;;;;12.57;8.48;;;3.10;99.90;;;;;;4978462;28;20198;-42
2020/12/19 08:32:34;;;;;;;14.00;10.18;;;3.10;99.90;;;;;;4995283;28;20202;-43
2020/12/19 08:35:02;;;;;;;12.45;5.47;;;3.10;99.90;;;;;;4994757;28;20269;-44
2020/12/19 08:37:29;;;;;;;11.38;7.60;;;3.20;99.90;;;;;;4995028;28;20190;-45
2020/12/19 08:40:09;;;;;;;6.53;4.63;;;3.10;99.90;;;;;;4977494;28;20198;-44
2020/12/19 08:42:45;;;;;;;11.02;6.43;;;3.20;99.90;;;;;;4994935;28;20474;-46
2020/12/19 08:45:21;;;;;;;11.02;8.50;;;3.20;99.90;;;;;;4994736;28;20210;-50
2020/12/19 08:47:51;;;;;;;9.20;6.38;;;3.30;99.90;;;;;;4994731;28;20206;-43
2020/12/19 08:50:30;;;;;;;9.70;5.32;;;3.40;99.90;;;;;;4995122;28;20627;-43
2020/12/19 08:53:19;;;;;;;8.13;6.10;;;3.50;99.90;;;;;;4994671;28;20237;-44
2020/12/19 08:55:46;;;;;;;9.10;5.50;;;3.50;99.90;;;;;;4994715;28;20221;-43
2020/12/19 08:58:25;;;;;;;9.45;5.80;;;3.60;99.90;;;;;;4995348;28;20621;-44
2020/12/19 09:00:53;;;;;;;11.30;7.30;;;3.70;99.90;;;;;;4994520;28;20724;-43
2020/12/19 09:03:31;;;;;;;14.93;7.88;;;3.70;99.90;;;;;;4994697;28;20190;-46
2020/12/19 09:06:00;;;;;;;11.73;6.95;;;3.70;99.90;;;;;;4984413;28;20215;-47
2020/12/19 09:08:32;;;;;;;7.70;5.55;;;3.70;99.90;;;;;;4978789;28;20203;-43
2020/12/19 09:11:00;;;;;;;9.13;6.20;;;3.80;99.90;;;;;;4975313;28;20584;-47
2020/12/19 09:13:28;;;;;;;5.40;4.65;;;3.80;99.90;;;;;;4999422;23;20215;-41
2020/12/19 09:16:03;;;;;;;11.50;4.90;;;3.90;99.90;;;;;;5015042;28;20210;-41
2020/12/19 09:18:32;;;;;;;7.60;5.97;;;4.00;99.90;;;;;;5014027;28;20201;-43
2020/12/19 09:21:02;;;;;;;12.95;5.50;;;4.00;99.90;;;;;;5013821;28;20201;-46
2020/12/19 09:23:30;;;;;;;15.88;7.43;;;4.00;99.90;;;;;;5014087;28;20221;-45
2020/12/19 09:25:59;;;;;;;7.40;6.63;;;4.00;99.90;;;;;;5013933;28;20241;-44
2020/12/19 09:28:26;;;;;;;7.05;5.25;;;4.00;99.90;;;;;;5013170;28;20194;-41
2020/12/19 09:30:55;;;;;;;11.02;5.60;;;4.10;99.90;;;;;;5012954;28;20648;-43
2020/12/19 09:33:23;;;;;;;9.40;6.72;;;4.10;99.90;;;;;;5014071;28;20174;-42
2020/12/19 09:35:51;;;;;;;13.98;6.95;;;4.20;99.90;;;;;;5013509;28;20221;-44
2020/12/19 09:38:18;;;;;;;8.70;5.45;;;4.30;99.90;;;;;;5014165;28;20228;-42
2020/12/19 09:40:45;;;;;;;10.85;7.57;;;4.30;99.90;;;;;;5009947;28;20453;-44
2020/12/19 09:43:13;;;;;;;11.57;8.15;;;4.40;99.90;;;;;;5014474;28;20185;-47
2020/12/19 09:45:40;;;;;;;5.50;3.78;;;4.50;99.90;;;;;;5013053;28;20214;-42
2020/12/19 09:48:08;;;;;;;9.63;6.28;;;4.50;99.90;;;;;;5014299;28;20202;-43
2020/12/19 09:50:35;;;;;;;11.85;8.55;;;4.50;99.90;;;;;;5013876;28;20544;-44
2020/12/19 09:53:02;;;;;;;7.07;5.53;;;4.60;99.90;;;;;;5014008;28;20217;-44
2020/12/19 09:55:31;;;;;;;6.53;5.60;;;4.60;99.90;;;;;;5010374;28;20702;-45
2020/12/19 09:57:59;;;;;;;14.23;7.85;;;4.70;99.90;;;;;;5014704;28;20178;-42
2020/12/19 10:00:27;;;;;;;7.20;6.30;;;4.80;99.90;;;;;;5014314;28;20174;-44
2020/12/19 10:02:54;;;;;;;9.35;5.40;;;4.90;99.90;;;;;;5013291;28;20202;-44
2020/12/19 10:05:22;;;;;;;7.28;5.20;;;4.90;99.90;;;;;;5013671;28;20245;-43
2020/12/19 10:07:50;;;;;;;7.22;5.03;;;5.00;99.90;;;;;;5022789;28;20314;-42
2020/12/19 10:10:17;;;;;;;9.80;5.97;;;5.20;99.90;;;;;;5033873;28;20223;-41
2020/12/19 10:12:44;;;;;;;9.75;5.50;;;5.20;99.90;;;;;;5025164;28;20192;-45
2020/12/19 10:15:16;;;;;;;8.73;5.18;;;5.30;99.90;;;;;;4993948;28;20241;-49
2020/12/19 10:17:43;;;;;;;6.90;5.32;;;5.30;99.90;;;;;;4976422;28;20194;-45
2020/12/19 10:20:10;;;;;;;11.07;6.28;;;5.30;99.90;;;;;;4993705;28;20191;-44
2020/12/19 10:22:38;;;;;;;7.43;5.90;;;5.30;99.90;;;;;;4993312;28;20193;-43
2020/12/19 10:25:05;;;;;;;8.82;5.35;;;5.30;99.90;;;;;;4993264;28;20175;-45
2020/12/19 10:27:32;;;;;;;9.10;8.20;;;5.40;99.90;;;;;;4993318;28;20207;-43
2020/12/19 10:30:00;;;;;;;6.00;4.82;;;5.40;99.90;;;;;;5002694;28;20205;-42
2020/12/19 10:32:27;;;;;;;6.50;5.72;;;5.40;99.90;;;;;;5012893;28;20201;-44
2020/12/19 10:34:54;;;;;;;10.10;5.60;;;5.50;99.90;;;;;;5012892;28;20698;-51
2020/12/19 10:37:21;;;;;;;7.47;5.70;;;5.60;99.90;;;;;;5012618;28;20362;-45
2020/12/19 10:39:49;;;;;;;17.75;5.40;;;5.70;99.90;;;;;;5012679;28;20186;-49
2020/12/19 10:42:16;;;;;;;11.02;5.25;;;5.70;99.90;;;;;;5012267;28;20170;-48
2020/12/19 10:44:43;;;;;;;12.45;6.20;;;5.80;99.90;;;;;;5012356;28;20194;-45
2020/12/19 10:47:11;;;;;;;12.98;6.70;;;5.90;99.90;;;;;;5012746;28;20230;-46
2020/12/19 10:49:38;;;;;;;10.88;6.85;;;5.80;99.90;;;;;;5012676;28;20198;-45
2020/12/19 10:52:05;;;;;;;6.63;4.07;;;5.90;99.90;;;;;;5012848;28;20600;-44
2020/12/19 10:54:32;;;;;;;9.52;5.45;;;6.00;99.90;;;;;;5012530;28;20178;-47
2020/12/19 10:57:01;;;;;;;8.23;6.13;;;6.10;99.90;;;;;;5012209;28;20613;-41
2020/12/19 10:59:29;;;;;;;8.75;5.70;;;6.10;99.90;;;;;;5012739;28;20186;-43
2020/12/19 11:01:57;;;;;;;7.82;4.55;;;6.20;99.90;;;;;;5012672;28;20179;-46
2020/12/19 11:04:24;;;;;;;10.63;7.60;;;6.20;1.00;;;;;;5012719;28;20655;-48
2020/12/19 11:06:51;;;;;;;10.23;6.07;;;6.20;1.00;;;;;;5011922;28;20210;-45
2020/12/19 11:09:18;;;;;;;7.38;5.20;;;6.10;1.00;;;;;;5012643;28;20190;-45
2020/12/19 11:11:53;;;;;;;8.55;5.10;;;6.10;74.40;;;;;;5013779;28;20584;-42
2020/12/19 11:14:22;;;;;;;6.88;5.07;;;6.10;1.00;;;;;;5012941;28;20205;-46
2020/12/19 11:16:49;;;;;;;10.18;4.82;;;6.10;38.50;;;;;;5013781;28;20216;-46
2020/12/19 11:19:19;;;;;;;13.18;5.80;;;6.10;65.20;;;;;;5013755;28;20193;-41
2020/12/19 11:21:46;;;;;;;7.38;4.47;;;6.10;47.30;;;;;;5013658;28;20674;-48
2020/12/19 11:24:14;;;;;;;9.25;5.53;;;6.20;65.20;;;;;;5013770;28;20404;-40
2020/12/19 11:26:42;;;;;;;8.02;4.97;;;6.30;11.50;;;;;;5014256;28;20209;-40
2020/12/19 11:29:10;;;;;;;10.38;6.90;;;6.40;1.00;;;;;;5013520;28;20674;-40
2020/12/19 11:31:38;;;;;;;7.40;4.80;;;6.50;1.00;;;;;;5013861;28;20200;-42
2020/12/19 11:34:06;;;;;;;8.98;6.60;;;6.40;1.00;;;;;;4996361;28;20613;-42
2020/12/19 11:36:38;;;;;;;9.18;5.72;;;6.50;1.00;;;;;;5014626;28;20213;-43
2020/12/19 11:39:07;;;;;;;6.45;4.93;;;6.60;4.00;;;;;;5015377;28;20546;-41
2020/12/19 11:41:36;;;;;;;9.18;7.00;;;6.70;1.00;;;;;;5014895;28;20185;-42
2020/12/19 11:44:04;;;;;;;9.45;5.38;;;6.80;1.00;;;;;;5015043;28;20659;-39
2020/12/19 11:46:31;;;;;;;8.75;5.20;;;6.80;1.00;;;;;;5017455;28;20217;-43
2020/12/19 11:48:59;;;;;;;4.65;4.00;;;6.80;1.00;;;;;;5016793;28;20843;-40
2020/12/19 11:51:28;;;;;;;5.00;4.43;;;6.90;1.00;;;;;;5015571;28;20670;-45
2020/12/19 11:53:56;;;;;;;7.65;4.88;;;6.90;1.00;;;;;;5014418;28;20182;-40
2020/12/19 11:56:23;;;;;;;8.93;5.10;;;6.90;1.00;;;;;;5015454;28;20224;-40
2020/12/19 11:58:50;;;;;;;7.65;4.30;;;6.90;1.00;;;;;;5015442;28;20182;-41
2020/12/19 12:01:17;;;;;;;9.57;5.20;;;6.90;1.00;;;;;;5016164;28;20619;-43
2020/12/19 12:03:44;;;;;;;7.43;4.88;;;6.90;1.00;;;;;;5014298;28;20201;-39
2020/12/19 12:06:12;;;;;;;9.43;6.00;;;7.00;1.00;;;;;;5015846;28;20212;-41
2020/12/19 12:08:41;;;;;;;16.98;5.80;;;7.00;1.00;;;;;;5014801;28;20190;-39
2020/12/19 12:11:09;;;;;;;8.02;5.10;;;7.10;1.00;;;;;;5015029;28;20189;-44
2020/12/19 12:13:36;;;;;;;8.90;6.00;;;7.20;1.00;;;;;;5013677;28;20200;-47
2020/12/19 12:16:08;;;;;;;9.30;5.47;;;7.30;1.00;;;;;;5015094;28;20305;-41
2020/12/19 12:18:36;;;;;;;15.93;7.15;;;7.20;1.00;;;;;;5017558;28;20249;-43
2020/12/19 12:21:03;;;;;;;6.55;5.32;;;7.20;1.00;;;;;;5017316;28;20727;-45
2020/12/19 12:23:31;;;;;;;5.35;4.85;;;7.30;1.00;;;;;;5015449;28;20197;-40
2020/12/19 12:25:59;;;;;;;6.88;5.55;;;7.40;1.00;;;;;;5014063;28;20206;-45
2020/12/19 12:28:26;;;;;;;6.38;4.68;;;7.40;1.00;;;;;;5016108;28;20198;-41
2020/12/19 12:30:53;;;;;;;8.32;6.40;;;7.40;1.00;;;;;;5017153;28;20415;-39
2020/12/19 12:33:20;;;;;;;10.90;5.88;;;7.30;1.00;;;;;;5016199;28;20194;-42
2020/12/19 12:35:48;;;;;;;5.75;4.75;;;7.30;1.00;;;;;;5016407;28;20202;-45
2020/12/19 12:38:15;;;;;;;5.75;3.95;;;7.40;1.00;;;;;;5019607;28;20186;-42
2020/12/19 12:40:44;;;;;;;6.82;4.15;;;7.40;1.00;;;;;;5018739;28;20205;-43
2020/12/19 12:43:12;;;;;;;10.18;5.05;;;7.40;1.00;;;;;;5017022;28;20178;-45
2020/12/19 12:45:39;;;;;;;11.18;5.85;;;7.40;1.00;;;;;;5017080;28;20214;-43
2020/12/19 12:48:06;;;;;;;6.13;4.90;;;7.40;1.00;;;;;;5001430;28;20245;-45
2020/12/19 12:50:33;;;;;;;7.47;6.30;;;7.40;1.00;;;;;;5030031;28;20201;-44
2020/12/19 12:53:01;;;;;;;10.68;5.75;;;7.40;1.00;;;;;;5027773;28;20194;-42
2020/12/19 12:55:29;;;;;;;9.20;6.57;;;7.40;1.00;;;;;;5019323;28;20206;-42
2020/12/19 12:57:58;;;;;;;8.65;6.30;;;7.50;1.00;;;;;;5020041;28;20194;-42
2020/12/19 13:00:27;;;;;;;7.63;5.95;;;7.40;1.00;;;;;;5057009;23;20216;-44
2020/12/19 13:02:54;;;;;;;7.90;5.20;;;7.50;1.00;;;;;;4973531;28;20176;-43
2020/12/19 13:05:21;;;;;;;7.20;5.07;;;7.50;1.00;;;;;;4973074;28;20239;-44
2020/12/19 13:07:48;;;;;;;7.78;5.45;;;7.40;1.00;;;;;;4975198;28;20222;-43
2020/12/19 13:10:15;;;;;;;11.50;6.75;;;7.50;1.00;;;;;;4975809;28;20175;-45
2020/12/19 13:12:43;;;;;;;6.78;5.80;;;7.50;1.00;;;;;;4976846;28;20192;-50
2020/12/19 13:15:11;;;;;;;7.70;5.22;;;7.50;1.00;;;;;;4976090;28;20213;-47
2020/12/19 13:17:39;;;;;;;6.05;4.30;;;7.50;1.00;;;;;;4975694;28;20696;-43
2020/12/19 13:20:06;;;;;;;10.82;5.20;;;7.50;1.00;;;;;;4975613;28;20612;-45
2020/12/19 13:22:33;;;;;;;8.50;5.30;;;7.50;1.00;;;;;;4975883;28;20637;-45
2020/12/19 13:25:00;;;;;;;8.25;5.43;;;7.40;1.00;;;;;;4976131;28;20187;-43
2020/12/19 13:27:27;;;;;;;6.10;4.90;;;7.40;1.00;;;;;;4975915;28;20566;-43
2020/12/19 13:29:54;;;;;;;6.57;4.88;;;7.40;1.00;;;;;;4976284;28;20196;-44
2020/12/19 13:32:22;;;;;;;5.50;4.85;;;7.40;1.00;;;;;;4976141;28;20540;-43
2020/12/19 13:34:49;;;;;;;10.57;5.00;;;7.40;1.00;;;;;;4975611;28;20176;-45
2020/12/19 13:37:16;;;;;;;9.15;4.97;;;7.40;1.00;;;;;;4976354;28;20701;-49
2020/12/19 13:39:44;;;;;;;11.07;6.68;;;7.50;1.00;;;;;;4975620;28;20197;-46
2020/12/19 13:42:11;;;;;;;5.80;5.20;;;7.40;1.00;;;;;;4976757;28;20203;-49
2020/12/19 13:44:38;;;;;;;5.82;4.85;;;7.40;1.00;;;;;;4976295;28;20183;-44
2020/12/19 13:47:05;;;;;;;5.80;4.15;;;7.40;1.00;;;;;;4976949;28;20211;-48
2020/12/19 13:49:33;;;;;;;12.07;6.63;;;7.30;1.00;;;;;;4975812;28;20283;-47
2020/12/19 13:52:02;;;;;;;5.75;5.20;;;7.30;1.00;;;;;;4975157;28;20280;-48
2020/12/19 13:54:29;;;;;;;5.97;5.10;;;7.30;1.00;;;;;;4974879;28;20223;-52
2020/12/19 13:56:56;;;;;;;7.60;5.47;;;7.30;1.00;;;;;;4974584;28;20288;-43
2020/12/19 13:59:23;;;;;;;8.63;5.20;;;7.30;1.00;;;;;;4974632;28;20250;-47
2020/12/19 14:01:50;;;;;;;9.82;7.47;;;7.20;1.00;;;;;;4974436;28;20286;-42
2020/12/19 14:04:18;;;;;;;8.18;5.95;;;7.20;1.00;;;;;;4974998;28;20195;-44
2020/12/19 14:06:46;;;;;;;9.52;5.32;;;7.20;1.00;;;;;;4970786;28;20622;-47
2020/12/19 14:09:19;;;;;;;8.20;5.93;;;7.10;1.00;;;;;;4965620;28;20192;-50
2020/12/19 14:11:47;;;;;;;11.27;7.07;;;7.10;17.00;;;;;;4955985;29;20220;-43
2020/12/19 14:14:14;;;;;;;8.00;4.70;;;7.00;99.90;;;;;;4954383;28;20184;-46
2020/12/19 14:16:41;;;;;;;6.40;4.78;;;7.00;99.90;;;;;;4975210;28;20684;-46
2020/12/19 14:19:11;;;;;;;8.80;5.10;;;6.90;99.90;;;;;;4975204;28;20250;-45
2020/12/19 14:21:39;;;;;;;8.25;4.82;;;6.90;99.90;;;;;;4975187;28;20191;-43
2020/12/19 14:24:08;;;;;;;7.25;5.72;;;6.90;99.90;;;;;;4975178;28;20187;-43
2020/12/19 14:26:35;;;;;;;9.88;5.75;;;6.80;99.90;;;;;;4974377;28;20199;-46